Axson, Georgia
Current Conditions -  °F | °C
As of 10:55 AM on Thursday 27 Nov 2014 (Local Time) from KHOE Reporting Station
Clear Clear  
Wind Chill: 55°   Ceiling: Unl
Heat Index: 55°   Visibility: 10mi
Dew Point: 36°   Wind: 16mph
Humidity: 47%   Direction: 300°WNW
Pressure: 30.29"   Gusts: 23mph
Location:  31.28°N, 82.73°W
Report Text: KHOE 271555Z AUTO 30014G20KT 10SM CLR 13/02 A3029 RMK AO2
Loading
Personal Weather Stations






























Interactive Weather Map New forecast layout! Learn more

10-Day Weather Forecast

Advertisements
Track Severe Weather on mobile